Pagina principale
METAR-TAF:

METAR-TAF

Aeroporti :

Aeroporto di Harbin-Taiping

Harbin, Cina

latitudine: 45-45N, longitudine: 126-46E, altezza: 143 m

Osservazione

Il bollettino è stato emesso 30 minuti fa, alle 23:00 UTC
Vento 6 kt da sud, variando fra sud-est e sud-ovest
Temperature 9°C
Umidità 76%
Pressione 1006 hPa
Visibilità 10 km o più
nessuna nube inferiore a 1500 m e nessun cumulonembo

METAR: ZYHB 212300Z 18003MPS 140V220 CAVOK 09/05 Q1006 NOSIG

Ora: 07:30 (23:30 UTC)

Previsione

Il bollettino è stato emesso 10 ore e 20 minuti fa, alle 13:10 UTC
Previsione valida dal 21 alle 18 UTC al 22 alle 18 UTC
Vento 12 kt da sud/sud-ovest con raffiche fino a 23 kt
Visibilità: 6000 m
Nubi sparse ad un'altezza di 3000 ft

TAF: ZYHB 211310Z 2118/2218 21006G12MPS 6000 SCT030 TX17/2206Z TN08/2121Z

Osservazioni e previsioni meteorologiche di più di 4000 aeroporti (messaggi METAR e TAF).

Le stazioni disponibili sono rappresentate dai dischi gialli e rossi sulla carta.

Puntare il mouse per vedere il nome della stazione.

Clicca sopra per visualizzare le osservazioni e previsioni meteorologiche.

Per cambiare la mappa : fare clic sui pulsanti verdi con una croce nera per ingrandire, il pulsante verde con un trattino per diminuire, o sulla freccia verde per le mappe adiacenti.


METAR-TAF: